sensor_id;sensor_type;location;lat;lon;timestamp;pressure;altitude;pressure_sealevel;temperature;humidity
69982;BME280;57319;56.274;43.980;2023-12-29T00:01:52;98640.28;;;-6.90;97.14
69982;BME280;57319;56.274;43.980;2023-12-29T00:04:17;98630.41;;;-6.87;96.53
69982;BME280;57319;56.274;43.980;2023-12-29T00:06:44;98625.53;;;-6.84;96.74
69982;BME280;57319;56.274;43.980;2023-12-29T00:09:09;98624.53;;;-6.87;96.88
69982;BME280;57319;56.274;43.980;2023-12-29T00:11:35;98626.25;;;-6.86;96.70
69982;BME280;57319;56.274;43.980;2023-12-29T00:14:01;98620.47;;;-6.85;96.80
69982;BME280;57319;56.274;43.980;2023-12-29T00:16:29;98615.56;;;-7.05;96.67
69982;BME280;57319;56.274;43.980;2023-12-29T00:18:55;98606.94;;;-7.11;97.00
69982;BME280;57319;56.274;43.980;2023-12-29T00:21:20;98612.84;;;-7.09;98.29
69982;BME280;57319;56.274;43.980;2023-12-29T00:23:47;98607.84;;;-6.88;98.76
69982;BME280;57319;56.274;43.980;2023-12-29T00:26:16;98599.47;;;-6.89;98.42
69982;BME280;57319;56.274;43.980;2023-12-29T00:28:43;98593.38;;;-6.95;97.69
69982;BME280;57319;56.274;43.980;2023-12-29T00:31:08;98605.78;;;-6.99;97.70
69982;BME280;57319;56.274;43.980;2023-12-29T00:33:34;98584.34;;;-6.92;97.79
69982;BME280;57319;56.274;43.980;2023-12-29T00:36:00;98589.41;;;-6.90;97.77
69982;BME280;57319;56.274;43.980;2023-12-29T00:38:26;98582.63;;;-6.93;98.26
69982;BME280;57319;56.274;43.980;2023-12-29T00:40:55;98590.91;;;-6.94;97.97
69982;BME280;57319;56.274;43.980;2023-12-29T00:43:21;98581.69;;;-6.96;97.62
69982;BME280;57319;56.274;43.980;2023-12-29T00:45:48;98584.97;;;-6.97;97.53
69982;BME280;57319;56.274;43.980;2023-12-29T00:48:13;98576.72;;;-6.95;98.23
69982;BME280;57319;56.274;43.980;2023-12-29T00:50:39;98578.19;;;-7.00;97.67
69982;BME280;57319;56.274;43.980;2023-12-29T00:53:05;98586.59;;;-6.98;98.04
69982;BME280;57319;56.274;43.980;2023-12-29T00:55:30;98578.34;;;-6.95;97.62
69982;BME280;57319;56.274;43.980;2023-12-29T00:57:56;98579.03;;;-7.00;97.51
69982;BME280;57319;56.274;43.980;2023-12-29T01:00:21;98580.63;;;-7.02;97.78
69982;BME280;57319;56.274;43.980;2023-12-29T01:02:47;98573.81;;;-7.27;97.85
69982;BME280;57319;56.274;43.980;2023-12-29T01:05:16;98572.78;;;-7.11;97.93
69982;BME280;57319;56.274;43.980;2023-12-29T01:07:44;98570.34;;;-7.09;98.23
69982;BME280;57319;56.274;43.980;2023-12-29T01:10:10;98572.47;;;-6.97;98.63
69982;BME280;57319;56.274;43.980;2023-12-29T01:12:36;98577.47;;;-6.97;98.81
69982;BME280;57319;56.274;43.980;2023-12-29T01:15:02;98567.66;;;-6.91;98.58
69982;BME280;57319;56.274;43.980;2023-12-29T01:17:30;98572.22;;;-7.04;98.85
69982;BME280;57319;56.274;43.980;2023-12-29T01:19:55;98569.03;;;-7.00;98.08
69982;BME280;57319;56.274;43.980;2023-12-29T01:22:21;98561.53;;;-7.00;98.67
69982;BME280;57319;56.274;43.980;2023-12-29T01:24:48;98561.81;;;-6.92;99.02
69982;BME280;57319;56.274;43.980;2023-12-29T01:27:13;98560.44;;;-7.06;98.48
69982;BME280;57319;56.274;43.980;2023-12-29T01:29:39;98558.47;;;-6.92;99.65
69982;BME280;57319;56.274;43.980;2023-12-29T01:32:05;98555.16;;;-6.91;99.34
69982;BME280;57319;56.274;43.980;2023-12-29T01:34:33;98547.78;;;-6.88;99.70
69982;BME280;57319;56.274;43.980;2023-12-29T01:37:01;98543.34;;;-6.95;100.00
69982;BME280;57319;56.274;43.980;2023-12-29T01:39:27;98540.16;;;-6.91;100.00
69982;BME280;57319;56.274;43.980;2023-12-29T01:41:55;98536.75;;;-6.93;100.00
69982;BME280;57319;56.274;43.980;2023-12-29T01:44:22;98535.09;;;-6.93;100.00
69982;BME280;57319;56.274;43.980;2023-12-29T01:46:54;98528.56;;;-6.89;100.00
69982;BME280;57319;56.274;43.980;2023-12-29T01:49:21;98525.81;;;-6.95;100.00
69982;BME280;57319;56.274;43.980;2023-12-29T01:51:51;98524.97;;;-6.96;100.00
69982;BME280;57319;56.274;43.980;2023-12-29T01:54:19;98522.31;;;-7.01;100.00
69982;BME280;57319;56.274;43.980;2023-12-29T01:56:46;98513.53;;;-7.12;100.00
69982;BME280;57319;56.274;43.980;2023-12-29T01:59:14;98524.88;;;-6.99;100.00
69982;BME280;57319;56.274;43.980;2023-12-29T02:01:40;98510.50;;;-7.05;100.00
69982;BME280;57319;56.274;43.980;2023-12-29T02:04:06;98520.88;;;-6.94;100.00
69982;BME280;57319;56.274;43.980;2023-12-29T02:06:33;98511.50;;;-7.00;100.00
69982;BME280;57319;56.274;43.980;2023-12-29T02:08:59;98516.28;;;-7.06;100.00
69982;BME280;57319;56.274;43.980;2023-12-29T02:11:26;98513.31;;;-6.95;100.00
69982;BME280;57319;56.274;43.980;2023-12-29T02:13:52;98504.28;;;-6.92;100.00
69982;BME280;57319;56.274;43.980;2023-12-29T02:19:41;98502.50;;;-6.94;100.00
69982;BME280;57319;56.274;43.980;2023-12-29T02:22:08;98497.66;;;-6.90;100.00
69982;BME280;57319;56.274;43.980;2023-12-29T02:24:34;98494.03;;;-6.98;100.00
69982;BME280;57319;56.274;43.980;2023-12-29T02:27:16;98481.59;;;-6.96;100.00
69982;BME280;57319;56.274;43.980;2023-12-29T02:29:47;98489.22;;;-6.93;100.00
69982;BME280;57319;56.274;43.980;2023-12-29T02:32:16;98490.78;;;-6.95;100.00
69982;BME280;57319;56.274;43.980;2023-12-29T02:34:44;98492.00;;;-7.08;100.00
69982;BME280;57319;56.274;43.980;2023-12-29T02:37:14;98481.88;;;-6.89;100.00
69982;BME280;57319;56.274;43.980;2023-12-29T02:39:40;98477.84;;;-6.85;100.00
69982;BME280;57319;56.274;43.980;2023-12-29T02:42:05;98478.84;;;-6.80;100.00
69982;BME280;57319;56.274;43.980;2023-12-29T02:44:31;98486.22;;;-7.07;100.00
69982;BME280;57319;56.274;43.980;2023-12-29T02:46:57;98479.16;;;-6.95;100.00
69982;BME280;57319;56.274;43.980;2023-12-29T02:49:23;98473.34;;;-6.94;100.00
69982;BME280;57319;56.274;43.980;2023-12-29T02:51:48;98456.00;;;-6.89;100.00
69982;BME280;57319;56.274;43.980;2023-12-29T02:54:15;98467.88;;;-6.84;100.00
69982;BME280;57319;56.274;43.980;2023-12-29T02:56:40;98454.53;;;-6.84;100.00
69982;BME280;57319;56.274;43.980;2023-12-29T02:59:06;98460.41;;;-6.82;100.00
69982;BME280;57319;56.274;43.980;2023-12-29T03:01:32;98470.34;;;-6.85;100.00
69982;BME280;57319;56.274;43.980;2023-12-29T03:03:57;98457.81;;;-6.85;100.00
69982;BME280;57319;56.274;43.980;2023-12-29T03:06:23;98462.78;;;-6.87;100.00
69982;BME280;57319;56.274;43.980;2023-12-29T03:08:50;98461.91;;;-6.87;100.00
69982;BME280;57319;56.274;43.980;2023-12-29T03:11:15;98455.53;;;-6.79;100.00
69982;BME280;57319;56.274;43.980;2023-12-29T03:13:41;98453.41;;;-6.92;100.00
69982;BME280;57319;56.274;43.980;2023-12-29T03:16:07;98455.66;;;-6.76;100.00
69982;BME280;57319;56.274;43.980;2023-12-29T03:18:32;98447.13;;;-6.81;100.00
69982;BME280;57319;56.274;43.980;2023-12-29T03:20:58;98457.19;;;-6.79;100.00
69982;BME280;57319;56.274;43.980;2023-12-29T03:23:23;98447.84;;;-6.84;100.00
69982;BME280;57319;56.274;43.980;2023-12-29T03:25:49;98448.06;;;-6.77;100.00
69982;BME280;57319;56.274;43.980;2023-12-29T03:28:15;98452.31;;;-6.75;100.00
69982;BME280;57319;56.274;43.980;2023-12-29T03:30:40;98439.16;;;-6.69;100.00
69982;BME280;57319;56.274;43.980;2023-12-29T03:33:06;98438.34;;;-6.70;100.00
69982;BME280;57319;56.274;43.980;2023-12-29T03:35:31;98435.94;;;-6.67;100.00
69982;BME280;57319;56.274;43.980;2023-12-29T03:37:57;98444.31;;;-6.66;100.00
69982;BME280;57319;56.274;43.980;2023-12-29T03:40:22;98435.03;;;-6.69;100.00
69982;BME280;57319;56.274;43.980;2023-12-29T03:42:49;98437.69;;;-6.88;100.00
69982;BME280;57319;56.274;43.980;2023-12-29T03:45:14;98428.41;;;-6.67;100.00
69982;BME280;57319;56.274;43.980;2023-12-29T03:47:40;98437.00;;;-6.84;100.00
69982;BME280;57319;56.274;43.980;2023-12-29T03:50:06;98437.94;;;-6.80;100.00
69982;BME280;57319;56.274;43.980;2023-12-29T03:52:31;98432.53;;;-6.69;100.00
69982;BME280;57319;56.274;43.980;2023-12-29T03:54:57;98435.03;;;-6.69;100.00
69982;BME280;57319;56.274;43.980;2023-12-29T03:57:23;98434.94;;;-6.72;100.00
69982;BME280;57319;56.274;43.980;2023-12-29T03:59:48;98428.22;;;-6.73;100.00
69982;BME280;57319;56.274;43.980;2023-12-29T04:02:14;98425.03;;;-6.69;100.00
69982;BME280;57319;56.274;43.980;2023-12-29T04:04:40;98431.50;;;-6.74;100.00
69982;BME280;57319;56.274;43.980;2023-12-29T04:07:05;98424.66;;;-6.79;100.00
69982;BME280;57319;56.274;43.980;2023-12-29T04:09:31;98434.06;;;-6.72;100.00
69982;BME280;57319;56.274;43.980;2023-12-29T04:11:57;98431.50;;;-6.74;100.00
69982;BME280;57319;56.274;43.980;2023-12-29T04:14:23;98431.78;;;-6.66;100.00
69982;BME280;57319;56.274;43.980;2023-12-29T04:16:49;98430.19;;;-6.64;100.00
69982;BME280;57319;56.274;43.980;2023-12-29T04:19:14;98435.88;;;-6.68;100.00
69982;BME280;57319;56.274;43.980;2023-12-29T04:21:40;98429.44;;;-6.61;100.00
69982;BME280;57319;56.274;43.980;2023-12-29T04:24:06;98440.84;;;-6.70;100.00
69982;BME280;57319;56.274;43.980;2023-12-29T04:26:38;98442.78;;;-6.61;100.00
69982;BME280;57319;56.274;43.980;2023-12-29T04:29:03;98436.94;;;-6.61;100.00
69982;BME280;57319;56.274;43.980;2023-12-29T04:31:29;98438.00;;;-6.79;100.00
69982;BME280;57319;56.274;43.980;2023-12-29T04:33:55;98434.34;;;-6.65;100.00
69982;BME280;57319;56.274;43.980;2023-12-29T04:36:20;98442.13;;;-6.81;100.00
69982;BME280;57319;56.274;43.980;2023-12-29T04:38:46;98436.41;;;-6.77;100.00
69982;BME280;57319;56.274;43.980;2023-12-29T04:41:12;98437.91;;;-6.58;100.00
69982;BME280;57319;56.274;43.980;2023-12-29T04:43:38;98426.88;;;-6.63;100.00
69982;BME280;57319;56.274;43.980;2023-12-29T04:46:04;98431.09;;;-6.62;100.00
69982;BME280;57319;56.274;43.980;2023-12-29T04:48:29;98425.44;;;-6.56;100.00
69982;BME280;57319;56.274;43.980;2023-12-29T04:50:55;98428.84;;;-6.54;100.00
69982;BME280;57319;56.274;43.980;2023-12-29T04:53:20;98428.69;;;-6.83;100.00
69982;BME280;57319;56.274;43.980;2023-12-29T04:55:46;98416.09;;;-6.62;100.00
69982;BME280;57319;56.274;43.980;2023-12-29T04:58:12;98423.78;;;-6.56;100.00
69982;BME280;57319;56.274;43.980;2023-12-29T05:00:37;98425.44;;;-6.56;100.00
69982;BME280;57319;56.274;43.980;2023-12-29T05:03:03;98421.22;;;-6.57;100.00
69982;BME280;57319;56.274;43.980;2023-12-29T05:05:30;98426.19;;;-6.59;100.00
69982;BME280;57319;56.274;43.980;2023-12-29T05:07:56;98425.53;;;-6.77;100.00
69982;BME280;57319;56.274;43.980;2023-12-29T05:10:21;98418.59;;;-6.62;100.00
69982;BME280;57319;56.274;43.980;2023-12-29T05:12:47;98420.69;;;-6.49;100.00
69982;BME280;57319;56.274;43.980;2023-12-29T05:15:13;98423.78;;;-6.56;100.00
69982;BME280;57319;56.274;43.980;2023-12-29T05:17:38;98414.84;;;-6.49;100.00
69982;BME280;57319;56.274;43.980;2023-12-29T05:20:06;98414.03;;;-6.48;100.00
69982;BME280;57319;56.274;43.980;2023-12-29T05:22:32;98420.75;;;-6.47;100.00
69982;BME280;57319;56.274;43.980;2023-12-29T05:24:58;98409.69;;;-6.54;100.00
69982;BME280;57319;56.274;43.980;2023-12-29T05:27:26;98409.72;;;-6.52;100.00
69982;BME280;57319;56.274;43.980;2023-12-29T05:29:52;98421.59;;;-6.46;100.00
69982;BME280;57319;56.274;43.980;2023-12-29T05:32:17;98403.28;;;-6.45;100.00
69982;BME280;57319;56.274;43.980;2023-12-29T05:34:43;98402.13;;;-6.79;100.00
69982;BME280;57319;56.274;43.980;2023-12-29T05:37:09;98401.16;;;-6.59;100.00
69982;BME280;57319;56.274;43.980;2023-12-29T05:39:34;98407.31;;;-6.49;100.00
69982;BME280;57319;56.274;43.980;2023-12-29T05:42:00;98403.81;;;-6.54;100.00
69982;BME280;57319;56.274;43.980;2023-12-29T05:44:26;98403.22;;;-6.47;100.00
69982;BME280;57319;56.274;43.980;2023-12-29T05:46:52;98421.75;;;-6.42;100.00
69982;BME280;57319;56.274;43.980;2023-12-29T05:49:24;98410.13;;;-6.40;100.00
69982;BME280;57319;56.274;43.980;2023-12-29T05:51:49;98422.69;;;-6.38;100.00
69982;BME280;57319;56.274;43.980;2023-12-29T05:54:15;98411.06;;;-6.36;100.00
69982;BME280;57319;56.274;43.980;2023-12-29T05:56:41;98409.44;;;-6.36;100.00
69982;BME280;57319;56.274;43.980;2023-12-29T05:59:06;98413.34;;;-6.44;100.00
69982;BME280;57319;56.274;43.980;2023-12-29T06:01:32;98409.41;;;-6.37;100.00
69982;BME280;57319;56.274;43.980;2023-12-29T06:03:58;98410.19;;;-6.62;100.00
69982;BME280;57319;56.274;43.980;2023-12-29T06:06:24;98408.63;;;-6.60;100.00
69982;BME280;57319;56.274;43.980;2023-12-29T06:08:49;98407.53;;;-6.43;100.00
69982;BME280;57319;56.274;43.980;2023-12-29T06:11:15;98406.63;;;-6.45;100.00
69982;BME280;57319;56.274;43.980;2023-12-29T06:13:41;98409.53;;;-6.33;100.00
69982;BME280;57319;56.274;43.980;2023-12-29T06:16:07;98408.41;;;-6.67;100.00
69982;BME280;57319;56.274;43.980;2023-12-29T06:18:34;98406.84;;;-6.39;100.00
69982;BME280;57319;56.274;43.980;2023-12-29T06:21:01;98416.25;;;-6.32;100.00
69982;BME280;57319;56.274;43.980;2023-12-29T06:23:28;98413.09;;;-6.26;100.00
69982;BME280;57319;56.274;43.980;2023-12-29T06:25:54;98421.44;;;-6.25;100.00
69982;BME280;57319;56.274;43.980;2023-12-29T06:28:19;98417.25;;;-6.52;100.00
69982;BME280;57319;56.274;43.980;2023-12-29T06:30:45;98416.56;;;-6.22;100.00
69982;BME280;57319;56.274;43.980;2023-12-29T06:33:11;98427.19;;;-6.28;100.00
69982;BME280;57319;56.274;43.980;2023-12-29T06:35:36;98412.53;;;-6.17;100.00
69982;BME280;57319;56.274;43.980;2023-12-29T06:38:04;98419.50;;;-6.34;100.00
69982;BME280;57319;56.274;43.980;2023-12-29T06:40:30;98411.63;;;-6.19;100.00
69982;BME280;57319;56.274;43.980;2023-12-29T06:42:55;98416.34;;;-6.28;100.00
69982;BME280;57319;56.274;43.980;2023-12-29T06:45:22;98414.28;;;-6.40;100.00
69982;BME280;57319;56.274;43.980;2023-12-29T06:47:47;98398.25;;;-6.20;100.00
69982;BME280;57319;56.274;43.980;2023-12-29T06:50:13;98401.63;;;-6.19;100.00
69982;BME280;57319;56.274;43.980;2023-12-29T06:52:39;98416.34;;;-6.28;100.00
69982;BME280;57319;56.274;43.980;2023-12-29T06:55:06;98406.38;;;-6.27;100.00
69982;BME280;57319;56.274;43.980;2023-12-29T06:57:32;98402.81;;;-6.08;100.00
69982;BME280;57319;56.274;43.980;2023-12-29T06:59:58;98407.91;;;-6.05;100.00
69982;BME280;57319;56.274;43.980;2023-12-29T07:02:24;98405.28;;;-6.09;100.00
69982;BME280;57319;56.274;43.980;2023-12-29T07:04:49;98407.13;;;-6.04;100.00
69982;BME280;57319;56.274;43.980;2023-12-29T07:07:15;98413.75;;;-6.06;100.00
69982;BME280;57319;56.274;43.980;2023-12-29T07:09:41;98406.44;;;-5.98;100.00
69982;BME280;57319;56.274;43.980;2023-12-29T07:12:07;98413.63;;;-6.09;100.00
69982;BME280;57319;56.274;43.980;2023-12-29T07:14:33;98412.13;;;-6.04;100.00
69982;BME280;57319;56.274;43.980;2023-12-29T07:17:01;98405.41;;;-6.05;100.00
69982;BME280;57319;56.274;43.980;2023-12-29T07:19:26;98413.84;;;-6.03;100.00
69982;BME280;57319;56.274;43.980;2023-12-29T07:21:59;98420.34;;;-6.08;100.00
69982;BME280;57319;56.274;43.980;2023-12-29T07:24:25;98412.09;;;-6.05;100.00
69982;BME280;57319;56.274;43.980;2023-12-29T07:26:51;98420.44;;;-6.05;100.00
69982;BME280;57319;56.274;43.980;2023-12-29T07:29:16;98437.41;;;-5.96;100.00
69982;BME280;57319;56.274;43.980;2023-12-29T07:31:42;98414.69;;;-6.02;100.00
69982;BME280;57319;56.274;43.980;2023-12-29T07:34:08;98412.38;;;-5.94;100.00
69982;BME280;57319;56.274;43.980;2023-12-29T07:36:38;98411.78;;;-5.87;100.00
69982;BME280;57319;56.274;43.980;2023-12-29T07:39:03;98415.31;;;-5.81;100.00
69982;BME280;57319;56.274;43.980;2023-12-29T07:41:29;98414.66;;;-5.75;100.00
69982;BME280;57319;56.274;43.980;2023-12-29T07:43:55;98415.38;;;-5.79;100.00
69982;BME280;57319;56.274;43.980;2023-12-29T07:46:25;98406.88;;;-5.83;100.00
69982;BME280;57319;56.274;43.980;2023-12-29T07:48:52;98409.78;;;-5.70;100.00
69982;BME280;57319;56.274;43.980;2023-12-29T07:51:18;98405.75;;;-5.65;99.81
69982;BME280;57319;56.274;43.980;2023-12-29T07:53:44;98413.53;;;-5.85;99.35
69982;BME280;57319;56.274;43.980;2023-12-29T07:56:13;98404.84;;;-5.69;99.86
69982;BME280;57319;56.274;43.980;2023-12-29T07:58:38;98410.06;;;-5.61;99.32
69982;BME280;57319;56.274;43.980;2023-12-29T08:01:04;98410.25;;;-5.55;99.10
69982;BME280;57319;56.274;43.980;2023-12-29T08:03:30;98400.28;;;-5.53;98.36
69982;BME280;57319;56.274;43.980;2023-12-29T08:05:55;98414.72;;;-5.45;98.50
69982;BME280;57319;56.274;43.980;2023-12-29T08:08:21;98403.78;;;-5.48;97.73
69982;BME280;57319;56.274;43.980;2023-12-29T08:10:46;98408.91;;;-6.00;97.48
69982;BME280;57319;56.274;43.980;2023-12-29T08:13:12;98408.06;;;-6.00;98.18
69982;BME280;57319;56.274;43.980;2023-12-29T08:15:38;98407.00;;;-5.80;98.65
69982;BME280;57319;56.274;43.980;2023-12-29T08:18:04;98400.25;;;-5.82;98.81
69982;BME280;57319;56.274;43.980;2023-12-29T08:20:30;98400.06;;;-5.59;98.79
69982;BME280;57319;56.274;43.980;2023-12-29T08:22:56;98394.53;;;-5.49;97.78
69982;BME280;57319;56.274;43.980;2023-12-29T08:25:24;98387.72;;;-5.53;97.13
69982;BME280;57319;56.274;43.980;2023-12-29T08:27:50;98391.00;;;-5.56;97.49
69982;BME280;57319;56.274;43.980;2023-12-29T08:30:15;98386.03;;;-5.54;97.38
69982;BME280;57319;56.274;43.980;2023-12-29T08:32:41;98391.81;;;-6.11;97.79
69982;BME280;57319;56.274;43.980;2023-12-29T08:35:07;98382.72;;;-6.09;98.93
69982;BME280;57319;56.274;43.980;2023-12-29T08:37:32;98394.94;;;-5.64;98.13
69982;BME280;57319;56.274;43.980;2023-12-29T08:39:59;98384.91;;;-5.91;97.43
69982;BME280;57319;56.274;43.980;2023-12-29T08:42:25;98387.03;;;-5.76;97.84
69982;BME280;57319;56.274;43.980;2023-12-29T08:44:52;98388.00;;;-5.73;97.38
69982;BME280;57319;56.274;43.980;2023-12-29T08:47:18;98387.63;;;-5.85;96.90
69982;BME280;57319;56.274;43.980;2023-12-29T08:49:43;98384.78;;;-5.69;97.00
69982;BME280;57319;56.274;43.980;2023-12-29T08:52:09;98394.13;;;-5.63;97.12
69982;BME280;57319;56.274;43.980;2023-12-29T08:54:35;98386.41;;;-5.69;97.42
69982;BME280;57319;56.274;43.980;2023-12-29T08:57:03;98391.88;;;-5.54;97.40
69982;BME280;57319;56.274;43.980;2023-12-29T08:59:29;98381.06;;;-5.53;96.52
69982;BME280;57319;56.274;43.980;2023-12-29T09:01:54;98381.81;;;-5.55;96.27
69982;BME280;57319;56.274;43.980;2023-12-29T09:04:20;98379.13;;;-5.62;96.10
69982;BME280;57319;56.274;43.980;2023-12-29T09:06:46;98379.59;;;-6.02;96.41
69982;BME280;57319;56.274;43.980;2023-12-29T09:09:11;98376.69;;;-5.87;96.35
69982;BME280;57319;56.274;43.980;2023-12-29T09:11:39;98370.81;;;-5.60;97.11
69982;BME280;57319;56.274;43.980;2023-12-29T09:14:05;98365.31;;;-5.76;96.53
69982;BME280;57319;56.274;43.980;2023-12-29T09:16:31;98363.28;;;-5.60;96.06
69982;BME280;57319;56.274;43.980;2023-12-29T09:18:56;98368.72;;;-5.47;94.97
69982;BME280;57319;56.274;43.980;2023-12-29T09:21:22;98356.16;;;-5.47;95.08
69982;BME280;57319;56.274;43.980;2023-12-29T09:23:48;98364.81;;;-5.37;95.00
69982;BME280;57319;56.274;43.980;2023-12-29T09:26:13;98360.34;;;-5.46;93.50
69982;BME280;57319;56.274;43.980;2023-12-29T09:28:42;98356.31;;;-5.40;94.69
69982;BME280;57319;56.274;43.980;2023-12-29T09:31:11;98367.13;;;-5.43;94.27
69982;BME280;57319;56.274;43.980;2023-12-29T09:33:37;98360.16;;;-5.53;94.70
69982;BME280;57319;56.274;43.980;2023-12-29T09:36:03;98364.34;;;-5.23;95.46
69982;BME280;57319;56.274;43.980;2023-12-29T09:38:29;98355.44;;;-5.12;94.84
69982;BME280;57319;56.274;43.980;2023-12-29T09:40:59;98359.84;;;-5.03;95.02
69982;BME280;57319;56.274;43.980;2023-12-29T09:43:25;98362.38;;;-5.03;94.21
69982;BME280;57319;56.274;43.980;2023-12-29T09:45:52;98357.31;;;-5.05;93.66
69982;BME280;57319;56.274;43.980;2023-12-29T09:48:19;98362.41;;;-5.02;93.99
69982;BME280;57319;56.274;43.980;2023-12-29T09:50:49;98358.03;;;-5.09;93.50
69982;BME280;57319;56.274;43.980;2023-12-29T09:53:15;98362.38;;;-5.03;92.88
69982;BME280;57319;56.274;43.980;2023-12-29T09:55:42;98359.00;;;-5.04;93.41
69982;BME280;57319;56.274;43.980;2023-12-29T09:58:08;98354.78;;;-5.05;93.45
69982;BME280;57319;56.274;43.980;2023-12-29T10:00:35;98349.47;;;-5.16;93.37
69982;BME280;57319;56.274;43.980;2023-12-29T10:03:01;98344.38;;;-5.19;94.06
69982;BME280;57319;56.274;43.980;2023-12-29T10:05:27;98348.06;;;-5.36;93.94
69982;BME280;57319;56.274;43.980;2023-12-29T10:07:53;98348.03;;;-5.07;94.88
69982;BME280;57319;56.274;43.980;2023-12-29T10:10:20;98348.84;;;-5.08;94.23
69982;BME280;57319;56.274;43.980;2023-12-29T10:12:48;98347.56;;;-5.55;93.81
69982;BME280;57319;56.274;43.980;2023-12-29T10:21:07;98347.34;;;-5.02;93.87
69982;BME280;57319;56.274;43.980;2023-12-29T10:23:43;98341.88;;;-5.19;93.98
69982;BME280;57319;56.274;43.980;2023-12-29T10:26:12;98347.50;;;-4.97;94.38
69982;BME280;57319;56.274;43.980;2023-12-29T10:28:38;98340.88;;;-4.94;93.10
69982;BME280;57319;56.274;43.980;2023-12-29T10:31:04;98341.69;;;-4.95;92.53
69982;BME280;57319;56.274;43.980;2023-12-29T10:33:31;98335.81;;;-5.27;93.63
69982;BME280;57319;56.274;43.980;2023-12-29T10:35:59;98333.19;;;-5.00;93.58
69982;BME280;57319;56.274;43.980;2023-12-29T10:38:28;98328.09;;;-5.03;92.66
69982;BME280;57319;56.274;43.980;2023-12-29T10:40:54;98328.81;;;-5.07;93.08
69982;BME280;57319;56.274;43.980;2023-12-29T10:43:35;98325.69;;;-4.98;93.10
69982;BME280;57319;56.274;43.980;2023-12-29T10:46:07;98329.63;;;-5.08;93.92
69982;BME280;57319;56.274;43.980;2023-12-29T10:48:37;98329.75;;;-5.03;93.81
69982;BME280;57319;56.274;43.980;2023-12-29T10:51:04;98328.13;;;-5.01;93.71
69982;BME280;57319;56.274;43.980;2023-12-29T10:53:34;98328.97;;;-5.01;94.21
69982;BME280;57319;56.274;43.980;2023-12-29T10:56:01;98329.88;;;-4.99;93.98
69982;BME280;57319;56.274;43.980;2023-12-29T10:58:27;98325.19;;;-5.17;94.52
69982;BME280;57319;56.274;43.980;2023-12-29T11:00:58;98336.44;;;-5.04;93.82
69982;BME280;57319;56.274;43.980;2023-12-29T11:03:27;98332.25;;;-5.03;94.03
69982;BME280;57319;56.274;43.980;2023-12-29T11:05:59;98336.50;;;-5.01;94.28
69982;BME280;57319;56.274;43.980;2023-12-29T11:08:26;98333.19;;;-5.00;94.45
69982;BME280;57319;56.274;43.980;2023-12-29T11:10:53;98335.78;;;-4.97;94.73
69982;BME280;57319;56.274;43.980;2023-12-29T11:13:20;98338.25;;;-4.98;94.93
69982;BME280;57319;56.274;43.980;2023-12-29T11:15:47;98333.31;;;-5.56;93.98
69982;BME280;57319;56.274;43.980;2023-12-29T11:18:14;98330.78;;;-5.27;94.80
69982;BME280;57319;56.274;43.980;2023-12-29T11:20:41;98335.44;;;-5.09;94.00
69982;BME280;57319;56.274;43.980;2023-12-29T11:23:09;98333.00;;;-5.06;93.63
69982;BME280;57319;56.274;43.980;2023-12-29T11:25:34;98329.81;;;-5.32;93.91
69982;BME280;57319;56.274;43.980;2023-12-29T11:28:00;98331.28;;;-5.08;95.02
69982;BME280;57319;56.274;43.980;2023-12-29T11:30:27;98328.00;;;-5.06;94.71
69982;BME280;57319;56.274;43.980;2023-12-29T11:35:27;98331.44;;;-5.02;94.35
69982;BME280;57319;56.274;43.980;2023-12-29T11:40:41;98334.66;;;-5.08;95.54
69982;BME280;57319;56.274;43.980;2023-12-29T11:43:12;98327.69;;;-5.17;94.95
69982;BME280;57319;56.274;43.980;2023-12-29T11:45:38;98339.25;;;-5.23;94.40
69982;BME280;57319;56.274;43.980;2023-12-29T11:48:05;98336.19;;;-5.13;95.26
69982;BME280;57319;56.274;43.980;2023-12-29T11:50:34;98334.56;;;-5.11;95.04
69982;BME280;57319;56.274;43.980;2023-12-29T11:53:02;98336.22;;;-5.12;94.93
69982;BME280;57319;56.274;43.980;2023-12-29T11:55:38;98333.16;;;-5.01;95.08
69982;BME280;57319;56.274;43.980;2023-12-29T12:00:48;98341.56;;;-4.99;95.37
69982;BME280;57319;56.274;43.980;2023-12-29T12:03:23;98333.97;;;-5.02;95.62
69982;BME280;57319;56.274;43.980;2023-12-29T12:05:50;98341.44;;;-5.04;95.88
69982;BME280;57319;56.274;43.980;2023-12-29T12:08:32;98332.28;;;-5.02;95.70
69982;BME280;57319;56.274;43.980;2023-12-29T12:14:04;98341.44;;;-5.04;96.03
69982;BME280;57319;56.274;43.980;2023-12-29T12:19:11;98338.47;;;-5.21;95.60
69982;BME280;57319;56.274;43.980;2023-12-29T12:21:37;98337.16;;;-5.08;95.87
69982;BME280;57319;56.274;43.980;2023-12-29T12:24:04;98332.13;;;-5.08;96.34
69982;BME280;57319;56.274;43.980;2023-12-29T12:26:30;98322.81;;;-5.12;95.88
69982;BME280;57319;56.274;43.980;2023-12-29T12:28:57;98332.53;;;-5.24;96.43
69982;BME280;57319;56.274;43.980;2023-12-29T12:31:23;98336.19;;;-5.13;96.61
69982;BME280;57319;56.274;43.980;2023-12-29T12:33:59;98333.78;;;-5.08;96.42
69982;BME280;57319;56.274;43.980;2023-12-29T12:36:31;98333.84;;;-5.07;96.40
69982;BME280;57319;56.274;43.980;2023-12-29T12:38:58;98333.56;;;-5.18;96.27
69982;BME280;57319;56.274;43.980;2023-12-29T12:41:25;98326.00;;;-5.19;96.61
69982;BME280;57319;56.274;43.980;2023-12-29T12:46:34;98329.56;;;-5.11;96.75
69982;BME280;57319;56.274;43.980;2023-12-29T12:49:03;98329.81;;;-5.32;96.52
69982;BME280;57319;56.274;43.980;2023-12-29T12:51:31;98322.31;;;-5.31;96.62
69982;BME280;57319;56.274;43.980;2023-12-29T12:53:57;98321.47;;;-5.31;97.76
69982;BME280;57319;56.274;43.980;2023-12-29T12:56:24;98325.53;;;-5.35;98.15
69982;BME280;57319;56.274;43.980;2023-12-29T12:58:57;98324.81;;;-5.31;97.42
69982;BME280;57319;56.274;43.980;2023-12-29T13:01:23;98331.59;;;-5.28;98.39
69982;BME280;57319;56.274;43.980;2023-12-29T13:03:49;98323.91;;;-5.34;98.06
69982;BME280;57319;56.274;43.980;2023-12-29T13:06:16;98336.25;;;-5.40;98.23
69982;BME280;57319;56.274;43.980;2023-12-29T13:08:43;98341.88;;;-5.49;99.03